sensor_id;sensor_type;location;lat;lon;timestamp;pressure;altitude;pressure_sealevel;temperature;humidity
12471;BME280;36499;46.484;13.832;2024-03-17T00:01:52;93499.59;;;3.36;100.00
12471;BME280;36499;46.484;13.832;2024-03-17T00:04:19;93501.97;;;3.28;100.00
12471;BME280;36499;46.484;13.832;2024-03-17T00:06:45;93505.09;;;3.31;100.00
12471;BME280;36499;46.484;13.832;2024-03-17T00:09:12;93496.97;;;3.26;100.00
12471;BME280;36499;46.484;13.832;2024-03-17T00:11:38;93502.19;;;3.15;100.00
12471;BME280;36499;46.484;13.832;2024-03-17T00:14:05;93479.81;;;2.96;100.00
12471;BME280;36499;46.484;13.832;2024-03-17T00:16:30;93488.06;;;3.00;100.00
12471;BME280;36499;46.484;13.832;2024-03-17T00:18:58;93492.94;;;3.03;100.00
12471;BME280;36499;46.484;13.832;2024-03-17T00:21:23;93482.56;;;3.04;100.00
12471;BME280;36499;46.484;13.832;2024-03-17T00:23:51;93482.13;;;2.99;100.00
12471;BME280;36499;46.484;13.832;2024-03-17T00:26:17;93486.59;;;3.07;100.00
12471;BME280;36499;46.484;13.832;2024-03-17T00:28:44;93480.50;;;3.08;100.00
12471;BME280;36499;46.484;13.832;2024-03-17T00:31:13;93479.28;;;3.33;100.00
12471;BME280;36499;46.484;13.832;2024-03-17T00:33:41;93487.19;;;3.20;100.00
12471;BME280;36499;46.484;13.832;2024-03-17T00:36:07;93484.56;;;3.31;100.00
12471;BME280;36499;46.484;13.832;2024-03-17T00:38:33;93481.47;;;3.37;100.00
12471;BME280;36499;46.484;13.832;2024-03-17T00:40:59;93486.19;;;3.42;100.00
12471;BME280;36499;46.484;13.832;2024-03-17T00:43:28;93487.13;;;3.31;100.00
12471;BME280;36499;46.484;13.832;2024-03-17T00:45:54;93487.41;;;3.07;100.00
12471;BME280;36499;46.484;13.832;2024-03-17T00:48:21;93489.00;;;2.99;100.00
12471;BME280;36499;46.484;13.832;2024-03-17T00:50:54;93488.75;;;3.02;100.00
12471;BME280;36499;46.484;13.832;2024-03-17T00:53:21;93491.13;;;2.94;100.00
12471;BME280;36499;46.484;13.832;2024-03-17T00:55:56;93484.69;;;2.99;100.00
12471;BME280;36499;46.484;13.832;2024-03-17T00:58:25;93485.19;;;2.93;100.00
12471;BME280;36499;46.484;13.832;2024-03-17T01:00:51;93482.06;;;2.89;100.00
12471;BME280;36499;46.484;13.832;2024-03-17T01:03:17;93487.81;;;3.03;100.00
12471;BME280;36499;46.484;13.832;2024-03-17T01:05:44;93486.06;;;2.82;100.00
12471;BME280;36499;46.484;13.832;2024-03-17T01:08:16;93492.34;;;2.69;100.00
12471;BME280;36499;46.484;13.832;2024-03-17T01:10:43;93489.34;;;2.64;100.00
12471;BME280;36499;46.484;13.832;2024-03-17T01:13:11;93487.47;;;2.66;100.00
12471;BME280;36499;46.484;13.832;2024-03-17T01:15:37;93491.13;;;2.73;100.00
12471;BME280;36499;46.484;13.832;2024-03-17T01:18:05;93488.44;;;2.74;100.00
12471;BME280;36499;46.484;13.832;2024-03-17T01:20:32;93482.00;;;2.59;100.00
12471;BME280;36499;46.484;13.832;2024-03-17T01:22:59;93479.69;;;2.56;100.00
12471;BME280;36499;46.484;13.832;2024-03-17T01:25:24;93478.63;;;2.58;100.00
12471;BME280;36499;46.484;13.832;2024-03-17T01:27:52;93481.66;;;2.64;100.00
12471;BME280;36499;46.484;13.832;2024-03-17T01:30:17;93481.31;;;2.57;100.00
12471;BME280;36499;46.484;13.832;2024-03-17T01:32:45;93476.38;;;2.44;100.00
12471;BME280;36499;46.484;13.832;2024-03-17T01:35:11;93471.94;;;2.46;100.00
12471;BME280;36499;46.484;13.832;2024-03-17T01:37:38;93473.00;;;2.44;100.00
12471;BME280;36499;46.484;13.832;2024-03-17T01:40:05;93472.06;;;2.45;100.00
12471;BME280;36499;46.484;13.832;2024-03-17T01:42:33;93480.00;;;2.42;100.00
12471;BME280;36499;46.484;13.832;2024-03-17T01:44:59;93475.69;;;2.42;100.00
12471;BME280;36499;46.484;13.832;2024-03-17T01:47:26;93475.88;;;2.50;100.00
12471;BME280;36499;46.484;13.832;2024-03-17T01:49:52;93472.25;;;2.53;100.00
12471;BME280;36499;46.484;13.832;2024-03-17T01:52:20;93468.50;;;2.57;100.00
12471;BME280;36499;46.484;13.832;2024-03-17T01:54:46;93480.19;;;2.50;100.00
12471;BME280;36499;46.484;13.832;2024-03-17T01:57:14;93479.50;;;2.48;100.00
12471;BME280;36499;46.484;13.832;2024-03-17T01:59:39;93480.94;;;2.41;100.00
12471;BME280;36499;46.484;13.832;2024-03-17T02:02:06;93474.69;;;2.34;100.00
12471;BME280;36499;46.484;13.832;2024-03-17T02:04:32;93472.50;;;2.29;100.00
12471;BME280;36499;46.484;13.832;2024-03-17T02:06:59;93466.88;;;2.35;100.00
12471;BME280;36499;46.484;13.832;2024-03-17T02:09:25;93463.38;;;2.57;100.00
12471;BME280;36499;46.484;13.832;2024-03-17T02:11:52;93466.94;;;2.66;100.00
12471;BME280;36499;46.484;13.832;2024-03-17T02:14:18;93468.44;;;2.47;100.00
12471;BME280;36499;46.484;13.832;2024-03-17T02:16:46;93471.59;;;2.40;100.00
12471;BME280;36499;46.484;13.832;2024-03-17T02:19:12;93470.44;;;2.44;100.00
12471;BME280;36499;46.484;13.832;2024-03-17T02:21:39;93469.44;;;2.35;100.00
12471;BME280;36499;46.484;13.832;2024-03-17T02:24:04;93465.38;;;2.33;100.00
12471;BME280;36499;46.484;13.832;2024-03-17T02:26:31;93464.00;;;2.29;100.00
12471;BME280;36499;46.484;13.832;2024-03-17T02:28:57;93467.63;;;2.26;100.00
12471;BME280;36499;46.484;13.832;2024-03-17T02:31:23;93462.00;;;2.32;100.00
12471;BME280;36499;46.484;13.832;2024-03-17T02:33:49;93468.34;;;2.17;100.00
12471;BME280;36499;46.484;13.832;2024-03-17T02:36:15;93472.28;;;2.21;100.00
12471;BME280;36499;46.484;13.832;2024-03-17T02:38:42;93466.38;;;2.09;100.00
12471;BME280;36499;46.484;13.832;2024-03-17T02:41:27;93465.81;;;2.06;100.00
12471;BME280;36499;46.484;13.832;2024-03-17T02:43:54;93468.06;;;1.99;100.00
12471;BME280;36499;46.484;13.832;2024-03-17T02:46:21;93466.34;;;2.00;100.00
12471;BME280;36499;46.484;13.832;2024-03-17T02:48:51;93469.44;;;2.03;100.00
12471;BME280;36499;46.484;13.832;2024-03-17T02:51:19;93469.50;;;1.92;100.00
12471;BME280;36499;46.484;13.832;2024-03-17T02:53:47;93469.56;;;2.02;100.00
12471;BME280;36499;46.484;13.832;2024-03-17T02:56:15;93475.19;;;1.96;100.00
12471;BME280;36499;46.484;13.832;2024-03-17T02:58:42;93472.06;;;1.92;100.00
12471;BME280;36499;46.484;13.832;2024-03-17T03:01:09;93467.97;;;1.89;100.00
12471;BME280;36499;46.484;13.832;2024-03-17T03:03:36;93469.50;;;1.92;100.00
12471;BME280;36499;46.484;13.832;2024-03-17T03:06:03;93473.13;;;1.89;100.00
12471;BME280;36499;46.484;13.832;2024-03-17T03:08:35;93472.19;;;1.90;100.00
12471;BME280;36499;46.484;13.832;2024-03-17T03:11:04;93470.69;;;1.77;100.00
12471;BME280;36499;46.484;13.832;2024-03-17T03:13:31;93472.69;;;1.73;100.00
12471;BME280;36499;46.484;13.832;2024-03-17T03:15:58;93477.09;;;1.71;100.00
12471;BME280;36499;46.484;13.832;2024-03-17T03:18:25;93477.00;;;1.73;100.00
12471;BME280;36499;46.484;13.832;2024-03-17T03:20:51;93473.13;;;1.78;100.00
12471;BME280;36499;46.484;13.832;2024-03-17T03:23:19;93475.56;;;1.80;100.00
12471;BME280;36499;46.484;13.832;2024-03-17T03:25:46;93476.03;;;1.85;100.00
12471;BME280;36499;46.484;13.832;2024-03-17T03:28:13;93473.00;;;1.80;100.00
12471;BME280;36499;46.484;13.832;2024-03-17T03:30:39;93481.16;;;1.85;100.00
12471;BME280;36499;46.484;13.832;2024-03-17T03:33:06;93479.16;;;1.88;100.00
12471;BME280;36499;46.484;13.832;2024-03-17T03:35:33;93483.00;;;1.94;100.00
12471;BME280;36499;46.484;13.832;2024-03-17T03:38:00;93487.22;;;1.84;100.00
12471;BME280;36499;46.484;13.832;2024-03-17T03:40:27;93487.44;;;1.81;100.00
12471;BME280;36499;46.484;13.832;2024-03-17T03:42:54;93492.94;;;1.76;100.00
12471;BME280;36499;46.484;13.832;2024-03-17T03:45:21;93495.16;;;1.70;100.00
12471;BME280;36499;46.484;13.832;2024-03-17T03:47:49;93491.78;;;1.69;100.00
12471;BME280;36499;46.484;13.832;2024-03-17T03:50:19;93495.97;;;1.70;100.00
12471;BME280;36499;46.484;13.832;2024-03-17T03:52:46;93495.41;;;1.67;100.00
12471;BME280;36499;46.484;13.832;2024-03-17T03:55:14;93488.53;;;1.67;100.00
12471;BME280;36499;46.484;13.832;2024-03-17T03:57:42;93490.28;;;1.67;100.00
12471;BME280;36499;46.484;13.832;2024-03-17T04:00:11;93484.78;;;1.71;100.00
12471;BME280;36499;46.484;13.832;2024-03-17T04:02:39;93477.69;;;1.75;100.00
12471;BME280;36499;46.484;13.832;2024-03-17T04:05:06;93477.44;;;1.78;100.00
12471;BME280;36499;46.484;13.832;2024-03-17T04:07:32;93480.69;;;1.91;100.00
12471;BME280;36499;46.484;13.832;2024-03-17T04:10:00;93483.47;;;1.99;100.00
12471;BME280;36499;46.484;13.832;2024-03-17T04:12:27;93486.84;;;2.00;100.00
12471;BME280;36499;46.484;13.832;2024-03-17T04:14:56;93486.50;;;1.93;100.00
12471;BME280;36499;46.484;13.832;2024-03-17T04:17:23;93487.34;;;1.82;100.00
12471;BME280;36499;46.484;13.832;2024-03-17T04:19:51;93487.22;;;1.84;100.00
12471;BME280;36499;46.484;13.832;2024-03-17T04:22:18;93483.47;;;1.88;100.00
12471;BME280;36499;46.484;13.832;2024-03-17T04:24:46;93488.84;;;1.74;100.00
12471;BME280;36499;46.484;13.832;2024-03-17T04:27:14;93487.47;;;1.70;100.00
12471;BME280;36499;46.484;13.832;2024-03-17T04:29:39;93488.84;;;1.85;100.00
12471;BME280;36499;46.484;13.832;2024-03-17T04:32:06;93490.38;;;1.76;100.00
12471;BME280;36499;46.484;13.832;2024-03-17T04:34:33;93489.34;;;1.68;100.00
12471;BME280;36499;46.484;13.832;2024-03-17T04:36:59;93491.69;;;1.60;100.00
12471;BME280;36499;46.484;13.832;2024-03-17T04:39:26;93493.34;;;1.49;100.00
12471;BME280;36499;46.484;13.832;2024-03-17T04:41:53;93490.53;;;1.52;100.00
12471;BME280;36499;46.484;13.832;2024-03-17T04:44:19;93486.81;;;1.56;100.00
12471;BME280;36499;46.484;13.832;2024-03-17T04:46:46;93493.81;;;1.54;100.00
12471;BME280;36499;46.484;13.832;2024-03-17T04:49:13;93489.03;;;1.39;100.00
12471;BME280;36499;46.484;13.832;2024-03-17T04:51:39;93492.06;;;1.33;100.00
12471;BME280;36499;46.484;13.832;2024-03-17T04:54:06;93490.78;;;1.38;100.00
12471;BME280;36499;46.484;13.832;2024-03-17T04:56:33;93488.44;;;1.58;100.00
12471;BME280;36499;46.484;13.832;2024-03-17T04:58:59;93486.09;;;1.66;100.00
12471;BME280;36499;46.484;13.832;2024-03-17T05:01:26;93490.06;;;1.59;100.00
12471;BME280;36499;46.484;13.832;2024-03-17T05:03:53;93494.38;;;1.47;100.00
12471;BME280;36499;46.484;13.832;2024-03-17T05:06:19;93501.25;;;1.46;100.00
12471;BME280;36499;46.484;13.832;2024-03-17T05:08:46;93501.59;;;1.42;100.00
12471;BME280;36499;46.484;13.832;2024-03-17T05:11:13;93500.94;;;1.29;100.00
12471;BME280;36499;46.484;13.832;2024-03-17T05:13:41;93509.06;;;1.22;100.00
12471;BME280;36499;46.484;13.832;2024-03-17T05:16:07;93512.22;;;1.15;100.00
12471;BME280;36499;46.484;13.832;2024-03-17T05:18:34;93517.78;;;1.20;100.00
12471;BME280;36499;46.484;13.832;2024-03-17T05:21:05;93516.41;;;1.27;100.00
12471;BME280;36499;46.484;13.832;2024-03-17T05:23:34;93515.47;;;1.28;100.00
12471;BME280;36499;46.484;13.832;2024-03-17T05:26:01;93520.72;;;1.27;100.00
12471;BME280;36499;46.484;13.832;2024-03-17T05:28:30;93522.13;;;1.31;100.00
12471;BME280;36499;46.484;13.832;2024-03-17T05:30:57;93519.06;;;1.37;100.00
12471;BME280;36499;46.484;13.832;2024-03-17T05:33:25;93528.03;;;1.42;100.00
12471;BME280;36499;46.484;13.832;2024-03-17T05:35:58;93529.31;;;1.48;100.00
12471;BME280;36499;46.484;13.832;2024-03-17T05:38:26;93535.00;;;1.40;100.00
12471;BME280;36499;46.484;13.832;2024-03-17T05:40:59;93533.50;;;1.49;100.00
12471;BME280;36499;46.484;13.832;2024-03-17T05:43:27;93542.00;;;1.49;100.00
12471;BME280;36499;46.484;13.832;2024-03-17T05:45:57;93536.28;;;1.57;100.00
12471;BME280;36499;46.484;13.832;2024-03-17T05:48:24;93532.09;;;1.56;100.00
12471;BME280;36499;46.484;13.832;2024-03-17T05:50:50;93537.34;;;1.66;100.00
12471;BME280;36499;46.484;13.832;2024-03-17T05:53:18;93538.47;;;1.73;100.00
12471;BME280;36499;46.484;13.832;2024-03-17T05:55:44;93529.50;;;1.78;100.00
12471;BME280;36499;46.484;13.832;2024-03-17T05:58:11;93538.22;;;1.76;100.00
12471;BME280;36499;46.484;13.832;2024-03-17T06:00:40;93534.28;;;1.83;100.00
12471;BME280;36499;46.484;13.832;2024-03-17T06:03:07;93534.03;;;1.86;100.00
12471;BME280;36499;46.484;13.832;2024-03-17T06:05:38;93531.22;;;1.89;100.00
12471;BME280;36499;46.484;13.832;2024-03-17T06:08:06;93533.78;;;1.89;100.00
12471;BME280;36499;46.484;13.832;2024-03-17T06:10:35;93538.00;;;1.90;100.00
12471;BME280;36499;46.484;13.832;2024-03-17T06:13:05;93536.47;;;1.99;100.00
12471;BME280;36499;46.484;13.832;2024-03-17T06:15:31;93532.81;;;2.01;100.00
12471;BME280;36499;46.484;13.832;2024-03-17T06:17:58;93540.13;;;2.17;100.00
12471;BME280;36499;46.484;13.832;2024-03-17T06:20:27;93541.59;;;2.31;100.00
12471;BME280;36499;46.484;13.832;2024-03-17T06:22:54;93532.84;;;2.33;100.00
12471;BME280;36499;46.484;13.832;2024-03-17T06:25:22;93538.25;;;2.51;100.00
12471;BME280;36499;46.484;13.832;2024-03-17T06:27:49;93536.94;;;2.77;100.00
12471;BME280;36499;46.484;13.832;2024-03-17T06:30:16;93537.16;;;2.85;100.00
12471;BME280;36499;46.484;13.832;2024-03-17T06:32:44;93533.34;;;3.01;100.00
12471;BME280;36499;46.484;13.832;2024-03-17T06:35:12;93536.00;;;3.20;100.00
12471;BME280;36499;46.484;13.832;2024-03-17T06:37:41;93536.88;;;3.30;100.00
12471;BME280;36499;46.484;13.832;2024-03-17T06:40:13;93541.38;;;3.47;100.00
12471;BME280;36499;46.484;13.832;2024-03-17T06:42:41;93541.72;;;3.64;100.00
12471;BME280;36499;46.484;13.832;2024-03-17T06:45:08;93539.59;;;3.69;100.00
12471;BME280;36499;46.484;13.832;2024-03-17T06:47:38;93544.06;;;3.76;100.00
12471;BME280;36499;46.484;13.832;2024-03-17T06:50:05;93548.00;;;3.71;100.00
12471;BME280;36499;46.484;13.832;2024-03-17T06:52:35;93551.63;;;3.78;100.00
12471;BME280;36499;46.484;13.832;2024-03-17T06:55:02;93548.16;;;3.88;100.00
12471;BME280;36499;46.484;13.832;2024-03-17T06:57:28;93548.88;;;4.00;100.00
12471;BME280;36499;46.484;13.832;2024-03-17T06:59:55;93549.59;;;4.12;100.00
12471;BME280;36499;46.484;13.832;2024-03-17T07:02:22;93545.56;;;4.19;100.00
12471;BME280;36499;46.484;13.832;2024-03-17T07:04:48;93550.03;;;4.27;100.00
12471;BME280;36499;46.484;13.832;2024-03-17T07:07:15;93554.22;;;4.28;100.00
12471;BME280;36499;46.484;13.832;2024-03-17T07:09:41;93543.00;;;4.29;100.00
12471;BME280;36499;46.484;13.832;2024-03-17T07:12:09;93548.56;;;4.43;100.00
12471;BME280;36499;46.484;13.832;2024-03-17T07:14:36;93540.31;;;4.59;100.00
12471;BME280;36499;46.484;13.832;2024-03-17T07:17:03;93544.78;;;4.67;100.00
12471;BME280;36499;46.484;13.832;2024-03-17T07:19:30;93559.13;;;4.88;100.00
12471;BME280;36499;46.484;13.832;2024-03-17T07:21:57;93553.84;;;5.00;100.00
12471;BME280;36499;46.484;13.832;2024-03-17T07:24:24;93559.53;;;5.13;100.00
12471;BME280;36499;46.484;13.832;2024-03-17T07:26:51;93558.13;;;5.28;100.00
12471;BME280;36499;46.484;13.832;2024-03-17T07:29:17;93553.81;;;5.56;100.00
12471;BME280;36499;46.484;13.832;2024-03-17T07:31:45;93554.66;;;5.84;100.00
12471;BME280;36499;46.484;13.832;2024-03-17T07:34:11;93543.47;;;6.03;100.00
12471;BME280;36499;46.484;13.832;2024-03-17T07:36:38;93548.28;;;6.15;100.00
12471;BME280;36499;46.484;13.832;2024-03-17T07:39:05;93546.69;;;6.32;100.00
12471;BME280;36499;46.484;13.832;2024-03-17T07:41:32;93545.91;;;6.49;100.00
12471;BME280;36499;46.484;13.832;2024-03-17T07:43:59;93549.69;;;6.73;100.00
12471;BME280;36499;46.484;13.832;2024-03-17T07:46:25;93548.41;;;6.94;100.00
12471;BME280;36499;46.484;13.832;2024-03-17T07:48:52;93546.50;;;7.22;100.00
12471;BME280;36499;46.484;13.832;2024-03-17T07:51:18;93542.47;;;7.46;100.00
12471;BME280;36499;46.484;13.832;2024-03-17T07:53:46;93546.25;;;7.59;100.00
12471;BME280;36499;46.484;13.832;2024-03-17T07:56:15;93543.97;;;7.82;100.00
12471;BME280;36499;46.484;13.832;2024-03-17T07:58:43;93544.47;;;7.86;100.00
12471;BME280;36499;46.484;13.832;2024-03-17T08:01:12;93543.75;;;8.10;100.00
12471;BME280;36499;46.484;13.832;2024-03-17T08:03:40;93540.09;;;8.37;100.00
12471;BME280;36499;46.484;13.832;2024-03-17T08:06:09;93528.22;;;8.68;100.00
12471;BME280;36499;46.484;13.832;2024-03-17T08:08:37;93534.56;;;9.14;100.00
12471;BME280;36499;46.484;13.832;2024-03-17T08:11:04;93531.47;;;9.19;100.00
12471;BME280;36499;46.484;13.832;2024-03-17T08:13:31;93524.97;;;9.39;100.00
12471;BME280;36499;46.484;13.832;2024-03-17T08:16:15;93519.56;;;9.65;100.00
12471;BME280;36499;46.484;13.832;2024-03-17T08:18:43;93507.94;;;10.00;100.00
12471;BME280;36499;46.484;13.832;2024-03-17T08:21:09;93508.28;;;10.36;100.00
12471;BME280;36499;46.484;13.832;2024-03-17T08:23:36;93513.09;;;10.47;100.00
12471;BME280;36499;46.484;13.832;2024-03-17T08:26:07;93509.00;;;10.53;95.10
12471;BME280;36499;46.484;13.832;2024-03-17T08:28:33;93509.22;;;10.43;93.78
12471;BME280;36499;46.484;13.832;2024-03-17T08:31:03;93513.53;;;10.28;89.37
12471;BME280;36499;46.484;13.832;2024-03-17T08:33:31;93514.00;;;10.32;94.27
12471;BME280;36499;46.484;13.832;2024-03-17T08:36:03;93512.28;;;10.16;91.87
12471;BME280;36499;46.484;13.832;2024-03-17T08:38:31;93511.31;;;10.17;92.80
12471;BME280;36499;46.484;13.832;2024-03-17T08:41:03;93501.56;;;10.19;92.76
12471;BME280;36499;46.484;13.832;2024-03-17T08:43:30;93505.56;;;10.30;93.12
12471;BME280;36499;46.484;13.832;2024-03-17T08:46:07;93508.34;;;10.28;93.63
12471;BME280;36499;46.484;13.832;2024-03-17T08:48:36;93502.72;;;10.39;89.52
12471;BME280;36499;46.484;13.832;2024-03-17T08:51:04;93497.38;;;10.41;89.36
12471;BME280;36499;46.484;13.832;2024-03-17T08:53:31;93502.41;;;10.42;86.05
12471;BME280;36499;46.484;13.832;2024-03-17T08:55:59;93496.94;;;10.60;87.83
12471;BME280;36499;46.484;13.832;2024-03-17T08:58:26;93487.97;;;10.85;90.18
12471;BME280;36499;46.484;13.832;2024-03-17T09:00:53;93497.00;;;10.98;81.83
12471;BME280;36499;46.484;13.832;2024-03-17T09:03:21;93488.38;;;11.35;87.81
12471;BME280;36499;46.484;13.832;2024-03-17T09:05:48;93489.84;;;11.52;78.72
12471;BME280;36499;46.484;13.832;2024-03-17T09:08:19;93490.41;;;11.77;74.50
12471;BME280;36499;46.484;13.832;2024-03-17T09:10:48;93481.97;;;12.04;79.51
12471;BME280;36499;46.484;13.832;2024-03-17T09:13:19;93479.66;;;12.31;80.13
12471;BME280;36499;46.484;13.832;2024-03-17T09:16:01;93477.63;;;12.62;87.87
12471;BME280;36499;46.484;13.832;2024-03-17T09:18:28;93479.34;;;12.76;82.73
12471;BME280;36499;46.484;13.832;2024-03-17T09:23:25;93468.16;;;13.25;80.14
12471;BME280;36499;46.484;13.832;2024-03-17T09:25:59;93467.34;;;13.52;79.51
12471;BME280;36499;46.484;13.832;2024-03-17T09:28:28;93456.03;;;13.73;80.49
12471;BME280;36499;46.484;13.832;2024-03-17T09:30:56;93444.03;;;13.85;79.14
12471;BME280;36499;46.484;13.832;2024-03-17T09:33:24;93448.94;;;13.95;75.03
12471;BME280;36499;46.484;13.832;2024-03-17T09:38:23;93446.28;;;14.36;70.83
12471;BME280;36499;46.484;13.832;2024-03-17T09:40:50;93440.25;;;14.49;70.37
12471;BME280;36499;46.484;13.832;2024-03-17T09:43:19;93447.09;;;14.37;66.87
12471;BME280;36499;46.484;13.832;2024-03-17T09:45:49;93446.84;;;14.25;62.26
12471;BME280;36499;46.484;13.832;2024-03-17T09:48:19;93444.19;;;14.18;65.44
12471;BME280;36499;46.484;13.832;2024-03-17T09:50:53;93445.00;;;14.19;65.23
12471;BME280;36499;46.484;13.832;2024-03-17T09:53:25;93442.56;;;14.11;65.96
12471;BME280;36499;46.484;13.832;2024-03-17T09:56:09;93437.97;;;14.19;68.90
12471;BME280;36499;46.484;13.832;2024-03-17T09:58:36;93438.22;;;14.31;63.38
12471;BME280;36499;46.484;13.832;2024-03-17T10:01:03;93432.16;;;14.24;61.60
12471;BME280;36499;46.484;13.832;2024-03-17T10:06:18;93433.38;;;14.28;65.13
12471;BME280;36499;46.484;13.832;2024-03-17T10:08:51;93421.97;;;14.42;65.91
12471;BME280;36499;46.484;13.832;2024-03-17T10:11:22;93424.97;;;14.52;65.07
12471;BME280;36499;46.484;13.832;2024-03-17T10:16:29;93426.47;;;14.81;64.82
12471;BME280;36499;46.484;13.832;2024-03-17T10:19:10;93415.81;;;15.03;61.37
12471;BME280;36499;46.484;13.832;2024-03-17T10:21:39;93409.78;;;14.95;62.06
12471;BME280;36499;46.484;13.832;2024-03-17T10:24:08;93404.16;;;15.12;64.02
12471;BME280;36499;46.484;13.832;2024-03-17T10:26:56;93411.38;;;15.23;65.90
12471;BME280;36499;46.484;13.832;2024-03-17T10:32:15;93409.19;;;15.00;63.57
12471;BME280;36499;46.484;13.832;2024-03-17T10:34:42;93408.38;;;15.06;64.89
12471;BME280;36499;46.484;13.832;2024-03-17T10:37:17;93405.34;;;15.09;65.54
12471;BME280;36499;46.484;13.832;2024-03-17T10:39:46;93409.78;;;15.02;67.99
12471;BME280;36499;46.484;13.832;2024-03-17T10:42:13;93399.31;;;15.15;68.10
12471;BME280;36499;46.484;13.832;2024-03-17T10:44:41;93407.53;;;15.19;66.24
12471;BME280;36499;46.484;13.832;2024-03-17T10:47:20;93407.94;;;15.29;65.52
12471;BME280;36499;46.484;13.832;2024-03-17T10:49:50;93396.25;;;15.38;65.59
12471;BME280;36499;46.484;13.832;2024-03-17T10:52:17;93391.00;;;15.51;69.67
12471;BME280;36499;46.484;13.832;2024-03-17T10:54:49;93387.94;;;15.54;64.20
12471;BME280;36499;46.484;13.832;2024-03-17T10:59:48;93388.19;;;15.40;61.81
12471;BME280;36499;46.484;13.832;2024-03-17T11:02:21;93385.78;;;15.45;67.96
12471;BME280;36499;46.484;13.832;2024-03-17T11:04:51;93384.94;;;15.57;68.15
12471;BME280;36499;46.484;13.832;2024-03-17T11:07:19;93385.16;;;15.49;65.44
12471;BME280;36499;46.484;13.832;2024-03-17T11:09:47;93385.13;;;15.62;65.21
12471;BME280;36499;46.484;13.832;2024-03-17T11:12:44;93386.91;;;15.75;64.50
12471;BME280;36499;46.484;13.832;2024-03-17T11:17:53;93377.16;;;15.95;65.00
12471;BME280;36499;46.484;13.832;2024-03-17T11:20:27;93381.34;;;16.10;61.87
12471;BME280;36499;46.484;13.832;2024-03-17T11:22:56;93371.38;;;16.25;59.89
12471;BME280;36499;46.484;13.832;2024-03-17T11:28:02;93363.94;;;16.22;61.44
12471;BME280;36499;46.484;13.832;2024-03-17T11:46:54;93344.22;;;16.51;59.53
12471;BME280;36499;46.484;13.832;2024-03-17T11:49:40;93342.00;;;16.48;58.62
12471;BME280;36499;46.484;13.832;2024-03-17T11:52:10;93334.25;;;16.59;63.04
12471;BME280;36499;46.484;13.832;2024-03-17T11:54:37;93330.78;;;16.66;59.91
12471;BME280;36499;46.484;13.832;2024-03-17T11:57:12;93325.31;;;16.67;58.60
12471;BME280;36499;46.484;13.832;2024-03-17T11:59:39;93328.78;;;16.61;61.28
12471;BME280;36499;46.484;13.832;2024-03-17T12:02:18;93321.25;;;16.71;59.51
12471;BME280;36499;46.484;13.832;2024-03-17T12:04:44;93325.91;;;16.69;55.53
12471;BME280;36499;46.484;13.832;2024-03-17T12:07:16;93315.06;;;16.59;59.68
12471;BME280;36499;46.484;13.832;2024-03-17T12:09:43;93304.16;;;16.62;60.67
12471;BME280;36499;46.484;13.832;2024-03-17T12:14:39;93293.97;;;16.72;58.84
12471;BME280;36499;46.484;13.832;2024-03-17T12:17:08;93295.53;;;16.86;54.21
12471;BME280;36499;46.484;13.832;2024-03-17T12:19:34;93288.16;;;16.95;56.70
12471;BME280;36499;46.484;13.832;2024-03-17T12:22:02;93282.41;;;17.05;57.49
12471;BME280;36499;46.484;13.832;2024-03-17T12:24:30;93278.41;;;17.02;54.94
12471;BME280;36499;46.484;13.832;2024-03-17T12:26:58;93283.16;;;17.12;56.26
12471;BME280;36499;46.484;13.832;2024-03-17T12:29:40;93276.59;;;17.21;54.05
12471;BME280;36499;46.484;13.832;2024-03-17T12:32:19;93283.16;;;17.48;53.27
12471;BME280;36499;46.484;13.832;2024-03-17T12:34:53;93276.94;;;17.61;55.23
12471;BME280;36499;46.484;13.832;2024-03-17T12:37:22;93272.94;;;17.40;54.77
12471;BME280;36499;46.484;13.832;2024-03-17T12:39:48;93266.44;;;17.43;54.62
12471;BME280;36499;46.484;13.832;2024-03-17T12:42:22;93261.50;;;17.53;55.50
12471;BME280;36499;46.484;13.832;2024-03-17T12:49:51;93246.16;;;17.50;56.30
12471;BME280;36499;46.484;13.832;2024-03-17T12:54:45;93233.53;;;17.40;53.77
12471;BME280;36499;46.484;13.832;2024-03-17T12:57:32;93225.81;;;17.45;54.69
12471;BME280;36499;46.484;13.832;2024-03-17T13:00:23;93223.94;;;17.64;53.13
12471;BME280;36499;46.484;13.832;2024-03-17T13:03:00;93222.06;;;17.71;53.80
12471;BME280;36499;46.484;13.832;2024-03-17T13:05:27;93217.06;;;17.63;54.05
12471;BME280;36499;46.484;13.832;2024-03-17T13:07:54;93221.78;;;17.43;54.15
12471;BME280;36499;46.484;13.832;2024-03-17T13:10:23;93222.69;;;17.18;52.45
12471;BME280;36499;46.484;13.832;2024-03-17T13:13:01;93227.84;;;17.07;53.04
12471;BME280;36499;46.484;13.832;2024-03-17T13:15:29;93219.66;;;16.97;55.84
12471;BME280;36499;46.484;13.832;2024-03-17T13:18:00;93215.75;;;17.24;58.54
12471;BME280;36499;46.484;13.832;2024-03-17T13:20:26;93215.16;;;17.22;58.46
12471;BME280;36499;46.484;13.832;2024-03-17T13:22:54;93208.09;;;17.22;59.66
12471;BME280;36499;46.484;13.832;2024-03-17T13:25:23;93206.13;;;17.18;57.36
12471;BME280;36499;46.484;13.832;2024-03-17T13:27:52;93203.88;;;17.21;58.37
12471;BME280;36499;46.484;13.832;2024-03-17T13:30:21;93199.69;;;17.14;58.35
12471;BME280;36499;46.484;13.832;2024-03-17T13:32:49;93194.31;;;17.09;56.50
12471;BME280;36499;46.484;13.832;2024-03-17T13:35:22;93190.00;;;16.96;59.85
12471;BME280;36499;46.484;13.832;2024-03-17T13:37:50;93185.84;;;16.88;59.49
12471;BME280;36499;46.484;13.832;2024-03-17T13:40:18;93193.56;;;16.83;58.51
12471;BME280;36499;46.484;13.832;2024-03-17T13:42:45;93187.41;;;16.71;60.39
12471;BME280;36499;46.484;13.832;2024-03-17T13:45:13;93190.50;;;16.43;56.02